Wellborn, TX (77881)

2:48 PM CDT on May 06, 2015 (GMT -0500)
Castle Rock | | Change Station
CLOSE
Current Station
Personal Weather Station
Location: College Station, TX
Elevation: 302 ft
Nearby Weather Stations

Elev 302 ft 30.56 °N, 96.27 °W | Updated 13 minutes ago

Mostly Cloudy
Mostly Cloudy
84.4 °F
Feels Like 92 °F
N
0.0
Wind Variable Wind from SE
Gusts 6.0 mph

Today
High -- | Low -- °F
--% Chance of Precip.
Yesterday
High -- | Low -- °F
Precip. -- in
6:37 AM 8:06 PM
Waning Gibbous, 93% visible
Pressure 29.92 in
Visibility 10.0 miles
Clouds Scattered Clouds 2500 ft
Mostly Cloudy 3900 ft
Mostly Cloudy 4800 ft
Heat Index 92 °F
Dew Point 74 °F
Humidity 71%
Rainfall 1.04 in
Snow Depth Not available.
UV 6 out of 12
Pollen 6.70 out of 12
Air Quality Not available.
Flu Activity Sporadic
METAR KCLL 061853Z 15011G18KT 10SM SCT025 BKN039 BKN048 27/21 A2994 RMK AO2 SLP132 T02720211

More Conditions Fewer Conditions

Pressure 29.92 in
Visibility 10.0 miles
Clouds Scattered Clouds 2500 ft
Mostly Cloudy 3900 ft
Mostly Cloudy 4800 ft
Heat Index 92 °F
Dew Point 74 °F
Humidity 71%
Rainfall 1.04 in
Snow Depth Not available.
UV 6 out of 12
Pollen 6.70 out of 12
Air Quality Not available.
Flu Activity Sporadic
METAR KCLL 061853Z 15011G18KT 10SM SCT025 BKN039 BKN048 27/21 A2994 RMK AO2 SLP132 T02720211

More Conditions Fewer Conditions

10-Day Weather Forecast

Almanac

Astronomy

May. 06, 2015 Rise Set
Actual Time
Civil Twilight
Nautical Twilight
Astronomical Twilight
Moon
Length of Visible Light
Length of Day
Tomorrow will be .
, % of the Moon is Illuminated

Today's Extremes

State Highs State Lows

Community

WunderPhotos

Upload Photos

1,819,003 photos uploaded!

WunderBlogs® & News

Nearby

Air Quality

  Air Quality AQ Index Pollutant
Not available.

Snow Depth

Station Depth Elevation

Earthquake Activity

City Distance Mag. Time & Date
Minimum magnitude displayed is 2.5.

Coastal Water Temperatures

Place Temperature

Stations

Nearby Weather Stations

Station Location Temp. Windchill Dew Point Humidity Wind Precip. Elev Updated Type